createdAt,value
2018-06-25T00:00:19.614Z,11.30
2018-06-25T00:02:48.046Z,11.70
2018-06-25T00:05:16.464Z,12.20
2018-06-25T00:07:44.888Z,11.70
2018-06-25T00:10:13.345Z,11.37
2018-06-25T00:12:41.744Z,12.20
2018-06-25T00:15:10.167Z,12.93
2018-06-25T00:17:38.600Z,12.10
2018-06-25T00:20:07.056Z,12.47
2018-06-25T00:22:35.684Z,12.90
2018-06-25T00:25:04.377Z,14.73
2018-06-25T00:27:32.798Z,15.03
2018-06-25T00:30:01.265Z,13.87
2018-06-25T00:32:29.669Z,14.87
2018-06-25T00:34:58.222Z,15.80
2018-06-25T00:37:26.662Z,16.63
2018-06-25T00:39:55.081Z,16.10
2018-06-25T00:42:23.527Z,16.27
2018-06-25T00:44:51.961Z,15.97
2018-06-25T00:47:20.389Z,14.23
2018-06-25T00:49:49.853Z,14.57
2018-06-25T00:52:18.337Z,14.97
2018-06-25T00:54:46.806Z,14.30
2018-06-25T00:57:15.231Z,13.67
2018-06-25T00:59:51.015Z,13.03
2018-06-25T01:02:19.881Z,12.07
2018-06-25T01:04:48.324Z,12.47
2018-06-25T01:07:17.347Z,11.53
2018-06-25T01:09:45.797Z,11.30
2018-06-25T01:12:14.678Z,11.27
2018-06-25T01:14:43.612Z,9.97
2018-06-25T01:17:12.045Z,10.30
2018-06-25T01:19:40.539Z,9.83
2018-06-25T01:22:10.127Z,10.33
2018-06-25T01:24:39.024Z,9.80
2018-06-25T01:27:08.582Z,10.07
2018-06-25T01:29:38.018Z,9.70
2018-06-25T01:32:06.505Z,10.03
2018-06-25T01:34:35.353Z,10.77
2018-06-25T01:37:04.153Z,10.40
2018-06-25T01:39:32.682Z,9.27
2018-06-25T01:42:01.205Z,9.53
2018-06-25T01:44:29.789Z,9.50
2018-06-25T01:46:58.508Z,7.67
2018-06-25T01:49:26.969Z,8.87
2018-06-25T01:51:55.680Z,8.37
2018-06-25T01:54:24.112Z,9.47
2018-06-25T01:56:52.561Z,9.13
2018-06-25T01:59:21.028Z,8.90
2018-06-25T02:01:49.435Z,10.23
2018-06-25T02:04:17.857Z,11.70
2018-06-25T02:06:46.263Z,13.80
2018-06-25T02:09:14.709Z,13.07
2018-06-25T02:11:43.151Z,14.57
2018-06-25T02:14:11.578Z,14.17
2018-06-25T02:16:40.090Z,9.57
2018-06-25T02:19:08.696Z,6.77
2018-06-25T02:21:37.096Z,5.63
2018-06-25T02:24:05.702Z,5.07
2018-06-25T02:26:34.347Z,4.53
2018-06-25T02:29:02.757Z,3.97
2018-06-25T02:31:31.197Z,4.83
2018-06-25T02:33:59.609Z,5.10
2018-06-25T02:36:28.035Z,4.77
2018-06-25T02:38:56.461Z,5.93
2018-06-25T02:41:25.268Z,6.47
2018-06-25T02:43:53.901Z,6.13
2018-06-25T02:46:22.288Z,6.23
2018-06-25T02:48:50.684Z,5.83
2018-06-25T02:51:19.100Z,6.30
2018-06-25T02:53:47.505Z,5.93
2018-06-25T02:56:15.987Z,6.23
2018-06-25T02:58:44.372Z,6.50
2018-06-25T03:01:12.872Z,6.17
2018-06-25T03:03:41.305Z,6.60
2018-06-25T03:06:09.689Z,6.40
2018-06-25T03:08:38.309Z,6.83
2018-06-25T03:11:06.872Z,6.93
2018-06-25T03:13:35.323Z,5.73
2018-06-25T03:16:03.812Z,6.37
2018-06-25T03:18:32.187Z,7.10
2018-06-25T03:21:00.612Z,6.50
2018-06-25T03:23:29.024Z,6.63
2018-06-25T03:25:57.421Z,6.17
2018-06-25T03:28:25.900Z,5.73
2018-06-25T03:30:54.276Z,6.33
2018-06-25T03:33:22.696Z,6.13
2018-06-25T03:35:51.647Z,6.80
2018-06-25T03:38:20.116Z,7.03
2018-06-25T03:40:48.659Z,7.50
2018-06-25T03:43:17.104Z,6.63
2018-06-25T03:45:45.703Z,6.47
2018-06-25T03:48:14.200Z,6.40
2018-06-25T03:50:42.594Z,6.63
2018-06-25T03:53:11.015Z,5.13
2018-06-25T03:55:39.409Z,5.17
2018-06-25T03:58:08.524Z,5.83
2018-06-25T04:00:37.130Z,4.97
2018-06-25T04:03:05.573Z,5.23
2018-06-25T04:05:34.009Z,5.83
2018-06-25T04:08:02.392Z,5.10
2018-06-25T04:10:30.890Z,6.10
2018-06-25T04:12:59.300Z,5.77
2018-06-25T04:15:27.725Z,5.70
2018-06-25T04:17:56.131Z,5.97
2018-06-25T04:20:25.059Z,5.63
2018-06-25T04:22:53.457Z,5.73
2018-06-25T04:25:21.861Z,5.77
2018-06-25T04:27:50.314Z,5.70
2018-06-25T04:30:18.748Z,6.00
2018-06-25T04:32:47.145Z,7.03
2018-06-25T04:35:15.837Z,5.40
2018-06-25T04:37:44.457Z,6.10
2018-06-25T04:40:13.021Z,6.10
2018-06-25T04:42:41.793Z,6.03
2018-06-25T04:45:10.343Z,5.57
2018-06-25T04:47:39.044Z,7.53
2018-06-25T04:50:07.663Z,6.37
2018-06-25T04:52:36.338Z,5.60
2018-06-25T04:55:05.057Z,5.70
2018-06-25T04:57:33.676Z,5.33
2018-06-25T05:00:02.178Z,5.93
2018-06-25T05:02:30.996Z,5.97
2018-06-25T05:04:59.526Z,5.60
2018-06-25T05:07:28.169Z,5.50
2018-06-25T05:09:57.010Z,5.87
2018-06-25T05:12:25.611Z,5.50
2018-06-25T05:14:54.338Z,5.57
2018-06-25T05:17:23.105Z,6.17
2018-06-25T05:19:51.720Z,5.33
2018-06-25T05:22:20.294Z,5.30
2018-06-25T05:24:48.832Z,5.70
2018-06-25T05:27:17.707Z,6.73
2018-06-25T05:29:46.562Z,5.37
2018-06-25T05:32:15.208Z,5.50
2018-06-25T05:34:43.826Z,5.33
2018-06-25T05:37:12.533Z,5.20
2018-06-25T05:39:41.283Z,5.30
2018-06-25T05:42:14.195Z,5.10
2018-06-25T05:44:43.046Z,4.67
2018-06-25T05:47:11.623Z,4.97
2018-06-25T05:49:40.442Z,4.60
2018-06-25T05:52:09.093Z,4.30
2018-06-25T05:54:37.713Z,4.93
2018-06-25T05:57:06.431Z,4.90
2018-06-25T05:59:35.995Z,4.33
2018-06-25T06:02:05.072Z,4.87
2018-06-25T06:04:33.721Z,4.67
2018-06-25T06:07:02.488Z,3.70
2018-06-25T06:09:32.262Z,4.17
2018-06-25T06:12:00.912Z,4.73
2018-06-25T06:14:29.575Z,4.17
2018-06-25T06:16:59.454Z,4.47
2018-06-25T06:19:28.238Z,3.60
2018-06-25T06:21:57.098Z,4.40
2018-06-25T06:24:26.479Z,4.47
2018-06-25T06:26:55.748Z,4.70
2018-06-25T06:29:25.177Z,4.57
2018-06-25T06:31:54.408Z,4.77
2018-06-25T06:34:23.746Z,5.20
2018-06-25T06:36:53.364Z,5.23
2018-06-25T06:39:22.644Z,5.33
2018-06-25T06:41:52.648Z,5.17
2018-06-25T06:44:21.578Z,5.57
2018-06-25T06:46:50.641Z,5.10
2018-06-25T06:49:19.760Z,5.50
2018-06-25T06:51:48.717Z,5.20
2018-06-25T06:54:17.777Z,5.97
2018-06-25T06:56:46.594Z,6.50
2018-06-25T06:59:15.420Z,5.87
2018-06-25T07:01:44.890Z,5.60
2018-06-25T07:04:14.017Z,6.13
2018-06-25T07:06:42.785Z,7.10
2018-06-25T07:09:13.046Z,6.10
2018-06-25T07:11:42.276Z,6.57
2018-06-25T07:14:11.022Z,6.33
2018-06-25T07:16:40.686Z,7.17
2018-06-25T07:19:09.721Z,8.53
2018-06-25T07:21:38.761Z,8.70
2018-06-25T07:24:07.424Z,9.80
2018-06-25T07:26:35.973Z,11.27
2018-06-25T07:29:04.708Z,11.97
2018-06-25T07:31:33.256Z,11.57
2018-06-25T07:34:01.741Z,12.97
2018-06-25T07:36:30.251Z,11.70
2018-06-25T07:38:58.701Z,13.50
2018-06-25T07:41:27.144Z,14.17
2018-06-25T07:43:55.748Z,15.23
2018-06-25T07:46:24.273Z,14.90
2018-06-25T07:48:53.055Z,15.57
2018-06-25T07:51:21.588Z,16.10
2018-06-25T07:53:50.142Z,17.13
2018-06-25T07:56:18.888Z,15.97
2018-06-25T07:58:47.476Z,15.80
2018-06-25T08:01:16.109Z,16.20
2018-06-25T08:03:44.817Z,14.70
2018-06-25T08:06:13.634Z,17.07
2018-06-25T08:08:42.059Z,19.20
2018-06-25T08:11:10.716Z,19.40
2018-06-25T08:13:39.191Z,20.13
2018-06-25T08:16:07.789Z,20.20
2018-06-25T08:18:36.369Z,18.90
2018-06-25T08:21:04.973Z,17.80
2018-06-25T08:23:33.420Z,16.53
2018-06-25T08:26:01.985Z,16.87
2018-06-25T08:28:30.436Z,16.10
2018-06-25T08:30:59.159Z,16.17
2018-06-25T08:33:27.548Z,17.13
2018-06-25T08:35:56.031Z,17.43
2018-06-25T08:38:24.472Z,14.80
2018-06-25T08:40:52.974Z,14.83
2018-06-25T08:43:21.682Z,13.40
2018-06-25T08:45:50.189Z,14.13
2018-06-25T08:48:18.617Z,13.77
2018-06-25T08:50:47.183Z,15.20
2018-06-25T08:53:15.678Z,15.93
2018-06-25T08:55:44.134Z,14.60
2018-06-25T08:58:12.623Z,15.00
2018-06-25T09:00:41.102Z,16.33
2018-06-25T09:03:09.640Z,16.97
2018-06-25T09:05:38.031Z,17.20
2018-06-25T09:08:06.490Z,18.37
2018-06-25T09:10:34.977Z,18.07
2018-06-25T09:13:03.590Z,18.53
2018-06-25T09:15:32.114Z,18.30
2018-06-25T09:18:00.418Z,18.00
2018-06-25T09:20:29.608Z,19.40
2018-06-25T09:22:58.975Z,18.07
2018-06-25T09:25:27.504Z,17.80
2018-06-25T09:28:00.355Z,17.03
2018-06-25T09:30:28.836Z,17.57
2018-06-25T09:32:57.394Z,16.57
2018-06-25T09:35:26.016Z,14.67
2018-06-25T09:37:55.707Z,16.97
2018-06-25T09:40:24.590Z,15.43
2018-06-25T09:42:53.259Z,11.57
2018-06-25T09:45:22.515Z,10.63
2018-06-25T09:47:52.032Z,9.90
2018-06-25T09:50:20.768Z,9.53
2018-06-25T09:52:49.392Z,9.70
2018-06-25T09:55:18.109Z,9.23
2018-06-25T09:57:46.921Z,9.23
2018-06-25T10:00:21.079Z,9.50
2018-06-25T10:02:49.852Z,9.77
2018-06-25T10:05:18.503Z,9.43
2018-06-25T10:07:47.768Z,9.30
2018-06-25T10:10:16.438Z,10.23
2018-06-25T10:12:45.848Z,10.10
2018-06-25T10:15:14.409Z,8.13
2018-06-25T10:17:43.239Z,10.30
2018-06-25T10:20:11.804Z,10.00
2018-06-25T10:22:40.446Z,8.03
2018-06-25T10:25:09.056Z,11.03
2018-06-25T10:27:37.719Z,8.13
2018-06-25T10:30:06.552Z,8.00
2018-06-25T10:32:35.429Z,7.60
2018-06-25T10:35:04.229Z,6.53
2018-06-25T10:37:32.874Z,7.53
2018-06-25T10:40:01.569Z,7.83
2018-06-25T10:42:30.126Z,6.77
2018-06-25T10:44:58.685Z,6.67
2018-06-25T10:47:27.411Z,7.00
2018-06-25T10:49:55.965Z,7.93
2018-06-25T10:52:24.667Z,7.10
2018-06-25T10:54:53.424Z,6.30
2018-06-25T10:57:22.114Z,7.67
2018-06-25T10:59:50.871Z,9.77
2018-06-25T11:02:19.288Z,14.43
2018-06-25T11:04:47.781Z,16.73
2018-06-25T11:07:16.485Z,16.53
2018-06-25T11:09:44.929Z,17.30
2018-06-25T11:12:13.390Z,17.07
2018-06-25T11:14:41.855Z,15.00
2018-06-25T11:17:10.416Z,14.07
2018-06-25T11:19:38.839Z,13.60
2018-06-25T11:22:07.391Z,14.00
2018-06-25T11:24:35.801Z,14.17
2018-06-25T11:27:04.433Z,14.00
2018-06-25T11:29:32.799Z,14.53
2018-06-25T11:32:01.202Z,14.80
2018-06-25T11:34:29.805Z,15.47
2018-06-25T11:36:58.188Z,14.37
2018-06-25T11:39:26.838Z,14.13
2018-06-25T11:41:55.370Z,13.93
2018-06-25T11:44:23.877Z,13.60
2018-06-25T11:46:52.678Z,14.37
2018-06-25T11:49:21.178Z,14.50
2018-06-25T11:51:49.698Z,15.33
2018-06-25T11:54:18.069Z,14.30
2018-06-25T11:56:47.054Z,13.23
2018-06-25T11:59:15.441Z,11.70
2018-06-25T12:01:44.215Z,11.70
2018-06-25T12:04:12.609Z,11.73
2018-06-25T12:06:41.046Z,12.13
2018-06-25T12:09:10.797Z,11.37
2018-06-25T12:11:39.339Z,12.10
2018-06-25T12:14:08.716Z,11.47
2018-06-25T12:16:37.662Z,9.70
2018-06-25T12:19:06.168Z,8.77
2018-06-25T12:21:34.558Z,8.00
2018-06-25T12:24:03.005Z,8.47
2018-06-25T12:26:32.540Z,10.67
2018-06-25T12:29:00.932Z,8.97
2018-06-25T12:31:29.370Z,8.67
2018-06-25T12:33:57.800Z,7.57
2018-06-25T12:36:26.221Z,7.20
2018-06-25T12:38:54.701Z,7.27
2018-06-25T12:41:23.435Z,6.73
2018-06-25T12:43:51.798Z,7.43
2018-06-25T12:46:20.261Z,7.50
2018-06-25T12:48:48.678Z,7.53
2018-06-25T12:51:17.092Z,7.67
2018-06-25T12:53:45.627Z,7.70
2018-06-25T12:56:14.046Z,6.80
2018-06-25T12:58:42.460Z,6.20
2018-06-25T13:01:11.118Z,6.50
2018-06-25T13:03:39.549Z,6.90
2018-06-25T13:06:07.965Z,6.83
2018-06-25T13:08:36.624Z,6.90
2018-06-25T13:11:05.078Z,6.07
2018-06-25T13:13:33.517Z,5.50
2018-06-25T13:16:01.979Z,4.67
2018-06-25T13:18:30.404Z,5.23
2018-06-25T13:20:58.892Z,5.73
2018-06-25T13:23:27.342Z,5.80
2018-06-25T13:25:55.899Z,7.03
2018-06-25T13:28:24.342Z,6.30
2018-06-25T13:30:52.883Z,6.73
2018-06-25T13:33:21.401Z,5.93
2018-06-25T13:35:49.913Z,5.13
2018-06-25T13:38:19.152Z,4.70
2018-06-25T13:40:47.471Z,4.40
2018-06-25T13:43:15.911Z,4.87
2018-06-25T13:45:44.826Z,4.77
2018-06-25T13:48:13.336Z,4.43
2018-06-25T13:50:41.809Z,4.13
2018-06-25T13:53:10.294Z,4.10
2018-06-25T13:55:38.911Z,4.07
2018-06-25T13:58:07.411Z,4.23
2018-06-25T14:00:36.085Z,3.77
2018-06-25T14:03:04.564Z,4.40
2018-06-25T14:05:33.015Z,3.90
2018-06-25T14:08:01.545Z,4.50
2018-06-25T14:10:30.041Z,4.30
2018-06-25T14:12:58.501Z,4.07
2018-06-25T14:15:26.985Z,3.83
2018-06-25T14:17:55.443Z,3.93
2018-06-25T14:20:24.156Z,4.00
2018-06-25T14:22:52.566Z,3.70
2018-06-25T14:28:19.241Z,4.07
2018-06-25T14:30:52.920Z,4.23
2018-06-25T14:33:27.278Z,3.77
2018-06-25T14:35:55.733Z,3.57
2018-06-25T14:38:26.955Z,3.83
2018-06-25T14:40:55.407Z,3.83
2018-06-25T14:43:23.861Z,3.70
2018-06-25T14:45:52.270Z,3.57
2018-06-25T14:48:20.984Z,3.90
2018-06-25T14:50:49.352Z,3.17
2018-06-25T14:53:17.904Z,3.67
2018-06-25T14:55:46.398Z,5.17
2018-06-25T14:58:14.856Z,10.87
2018-06-25T15:00:43.286Z,4.70
2018-06-25T15:03:11.716Z,4.97
2018-06-25T15:05:40.280Z,4.10
2018-06-25T15:08:08.839Z,4.13
2018-06-25T15:10:37.289Z,4.63
2018-06-25T15:13:05.832Z,3.80
2018-06-25T15:15:34.222Z,5.37
2018-06-25T15:18:02.676Z,3.70
2018-06-25T15:20:31.094Z,4.43
2018-06-25T15:22:59.487Z,3.73
2018-06-25T15:25:27.977Z,4.60
2018-06-25T15:27:56.423Z,4.43
2018-06-25T15:30:24.897Z,4.27
2018-06-25T15:32:53.328Z,4.80
2018-06-25T15:35:21.743Z,4.83
2018-06-25T15:37:50.236Z,3.83
2018-06-25T15:40:18.715Z,4.50
2018-06-25T15:42:47.137Z,9.00
2018-06-25T15:45:15.659Z,5.43
2018-06-25T15:47:44.146Z,4.63
2018-06-25T15:50:12.595Z,4.53
2018-06-25T15:52:41.052Z,4.17
2018-06-25T15:55:09.506Z,4.27
2018-06-25T15:57:38.909Z,3.70
2018-06-25T16:00:07.403Z,4.70
2018-06-25T16:02:35.789Z,4.00
2018-06-25T16:05:04.321Z,4.00
2018-06-25T16:07:32.762Z,3.93
2018-06-25T16:10:01.196Z,4.33
2018-06-25T16:12:30.579Z,4.27
2018-06-25T16:14:59.020Z,3.70
2018-06-25T16:17:27.461Z,4.80
2018-06-25T16:19:55.937Z,4.47
2018-06-25T16:22:24.397Z,4.47
2018-06-25T16:24:53.084Z,4.00
2018-06-25T16:27:21.581Z,3.87
2018-06-25T16:29:50.096Z,3.90
2018-06-25T16:32:18.584Z,3.47
2018-06-25T16:34:47.010Z,3.80
2018-06-25T16:37:15.550Z,3.40
2018-06-25T16:39:43.978Z,4.53
2018-06-25T16:42:12.477Z,3.23
2018-06-25T16:44:40.902Z,3.13
2018-06-25T16:47:09.515Z,3.23
2018-06-25T16:49:37.932Z,3.60
2018-06-25T16:52:06.570Z,3.63
2018-06-25T16:54:35.081Z,3.23
2018-06-25T16:57:03.556Z,3.53
2018-06-25T16:59:32.102Z,3.40
2018-06-25T17:02:01.386Z,3.27
2018-06-25T17:04:29.899Z,3.00
2018-06-25T17:06:58.326Z,3.33
2018-06-25T17:09:26.820Z,3.00
2018-06-25T17:11:55.248Z,3.10
2018-06-25T17:14:23.669Z,2.50
2018-06-25T17:16:52.167Z,3.50
2018-06-25T17:19:20.596Z,2.77
2018-06-25T17:21:49.014Z,2.73
2018-06-25T17:24:17.489Z,2.83
2018-06-25T17:26:45.921Z,2.37
2018-06-25T17:29:14.330Z,2.80
2018-06-25T17:31:42.860Z,2.57
2018-06-25T17:34:11.318Z,2.60
2018-06-25T17:36:39.750Z,2.37
2018-06-25T17:39:08.659Z,3.40
2018-06-25T17:41:37.095Z,2.30
2018-06-25T17:44:05.591Z,2.97
2018-06-25T17:46:34.178Z,2.73
2018-06-25T17:49:02.652Z,2.67
2018-06-25T17:51:31.290Z,2.67
2018-06-25T17:53:59.746Z,2.97
2018-06-25T17:56:28.252Z,2.53
2018-06-25T17:58:56.858Z,2.63
2018-06-25T18:01:25.388Z,2.40
2018-06-25T18:03:53.934Z,2.50
2018-06-25T18:06:22.502Z,3.10
2018-06-25T18:08:51.451Z,2.40
2018-06-25T18:11:19.929Z,2.43
2018-06-25T18:13:48.380Z,2.90
2018-06-25T18:16:16.809Z,2.50
2018-06-25T18:18:45.384Z,2.70
2018-06-25T18:21:13.927Z,2.13
2018-06-25T18:23:42.497Z,3.00
2018-06-25T18:26:10.967Z,2.73
2018-06-25T18:28:39.457Z,2.73
2018-06-25T18:31:08.093Z,2.20
2018-06-25T18:33:36.617Z,2.67
2018-06-25T18:36:05.122Z,2.30
2018-06-25T18:38:33.593Z,3.33
2018-06-25T18:41:02.081Z,2.67
2018-06-25T18:43:30.513Z,3.00
2018-06-25T18:45:58.951Z,2.50
2018-06-25T18:48:27.431Z,4.10
2018-06-25T18:50:55.970Z,2.53
2018-06-25T18:53:24.437Z,2.63
2018-06-25T18:55:52.906Z,3.20
2018-06-25T18:58:21.417Z,3.40
2018-06-25T19:00:50.841Z,2.67
2018-06-25T19:03:19.283Z,2.73
2018-06-25T19:05:47.828Z,2.50
2018-06-25T19:08:16.203Z,2.20
2018-06-25T19:10:44.662Z,2.20
2018-06-25T19:13:13.236Z,2.57
2018-06-25T19:15:41.716Z,2.70
2018-06-25T19:18:10.214Z,2.60
2018-06-25T19:20:38.682Z,2.57
2018-06-25T19:23:07.148Z,2.30
2018-06-25T19:25:35.872Z,2.33
2018-06-25T19:28:05.005Z,2.10
2018-06-25T19:30:33.461Z,2.63
2018-06-25T19:33:01.946Z,2.33
2018-06-25T19:35:30.406Z,2.37
2018-06-25T19:37:59.057Z,2.50
2018-06-25T19:40:28.179Z,2.60
2018-06-25T19:42:57.092Z,2.60
2018-06-25T19:45:25.625Z,1.80
2018-06-25T19:47:54.081Z,2.37
2018-06-25T19:50:22.680Z,2.63
2018-06-25T19:52:51.115Z,2.20
2018-06-25T19:55:19.612Z,2.40
2018-06-25T19:57:48.079Z,2.10
2018-06-25T20:00:16.572Z,2.27
2018-06-25T20:02:45.126Z,2.40
2018-06-25T20:05:14.569Z,2.37
2018-06-25T20:07:43.280Z,2.63
2018-06-25T20:10:12.049Z,2.33
2018-06-25T20:12:40.520Z,2.50
2018-06-25T20:15:09.143Z,2.90
2018-06-25T20:17:37.619Z,2.37
2018-06-25T20:20:07.006Z,2.77
2018-06-25T20:22:35.586Z,2.60
2018-06-25T20:25:04.976Z,2.80
2018-06-25T20:27:33.478Z,2.70
2018-06-25T20:30:01.920Z,2.80
2018-06-25T20:45:19.968Z,2.60
2018-06-25T20:47:48.473Z,2.60
2018-06-25T20:50:16.962Z,3.00
2018-06-25T20:52:45.466Z,2.87
2018-06-25T20:55:13.965Z,2.67
2018-06-25T20:57:42.432Z,3.33
2018-06-25T21:00:10.933Z,2.90
2018-06-25T21:02:39.415Z,2.87
2018-06-25T21:05:07.881Z,2.70
2018-06-25T21:07:36.319Z,2.80
2018-06-25T21:10:04.786Z,3.13
2018-06-25T21:12:33.284Z,2.57
2018-06-25T21:15:01.807Z,3.20
2018-06-25T21:17:30.393Z,3.27
2018-06-25T21:19:59.515Z,3.30
2018-06-25T21:22:28.064Z,3.00
2018-06-25T21:24:56.546Z,3.00
2018-06-25T21:27:25.001Z,2.97
2018-06-25T21:29:53.423Z,3.23
2018-06-25T21:32:21.844Z,2.90
2018-06-25T21:34:50.315Z,3.37
2018-06-25T21:37:18.754Z,3.10
2018-06-25T21:39:47.225Z,3.10
2018-06-25T21:42:15.804Z,3.17
2018-06-25T21:44:44.271Z,3.00
2018-06-25T21:47:12.789Z,4.00
2018-06-25T21:49:41.281Z,3.60
2018-06-25T21:52:09.765Z,3.47
2018-06-25T21:54:38.285Z,3.70
2018-06-25T21:57:06.754Z,4.00
2018-06-25T21:59:35.258Z,3.80
2018-06-25T22:02:03.760Z,4.63
2018-06-25T22:04:32.747Z,3.67
2018-06-25T22:07:01.246Z,4.80
2018-06-25T22:09:29.700Z,5.10
2018-06-25T22:11:58.135Z,4.67
2018-06-25T22:14:26.658Z,4.20
2018-06-25T22:16:55.161Z,4.80
2018-06-25T22:19:23.602Z,4.07
2018-06-25T22:21:52.054Z,4.80
2018-06-25T22:24:20.585Z,4.93
2018-06-25T22:26:49.015Z,5.03
2018-06-25T22:29:17.533Z,5.37
2018-06-25T22:31:46.002Z,5.10
2018-06-25T22:34:14.457Z,5.20
2018-06-25T22:36:42.925Z,5.27
2018-06-25T22:39:12.240Z,5.03
2018-06-25T22:41:41.445Z,4.63
2018-06-25T22:44:11.626Z,5.43
2018-06-25T22:46:41.012Z,5.00
2018-06-25T22:49:10.604Z,4.50
2018-06-25T22:51:39.035Z,5.00
2018-06-25T22:54:08.784Z,5.37
2018-06-25T22:56:37.233Z,4.93
2018-06-25T22:59:06.102Z,5.00
2018-06-25T23:01:34.557Z,5.10
2018-06-25T23:04:03.028Z,5.60
2018-06-25T23:06:31.505Z,5.17
2018-06-25T23:08:59.898Z,5.67
2018-06-25T23:11:28.359Z,5.50
2018-06-25T23:13:56.741Z,5.37
2018-06-25T23:16:25.209Z,5.53
2018-06-25T23:18:53.641Z,5.57
2018-06-25T23:21:22.064Z,5.37
2018-06-25T23:23:50.461Z,5.53
2018-06-25T23:26:18.894Z,5.63
2018-06-25T23:28:47.313Z,6.07
2018-06-25T23:31:15.741Z,5.53
2018-06-25T23:33:44.185Z,6.03
2018-06-25T23:36:12.590Z,6.20
2018-06-25T23:38:40.961Z,6.10
2018-06-25T23:41:09.436Z,6.67
2018-06-25T23:43:37.855Z,6.63
2018-06-25T23:46:06.301Z,7.13
2018-06-25T23:48:34.748Z,5.90
2018-06-25T23:51:03.179Z,7.00
2018-06-25T23:53:31.624Z,5.73
2018-06-25T23:56:00.093Z,6.80
2018-06-25T23:58:28.536Z,6.70
